Time;durP1;ratioP1;P1;durP2;ratioP2;P2;SDS_P1;SDS_P2;PMS_P1;PMS_P2;Temp;Humidity;BMP_temperature;BMP_pressure;BME280_temperature;BME280_humidity;BME280_pressure;Samples;Min_cycle;Max_cycle;Signal;HPM_P1;HPM_P2
2024/01/05 00:00:56;;;;;;;18.42;5.15;;;;;;;6.98;100.00;99726.94;4882066;29;20033;-75
2024/01/05 00:03:21;;;;;;;20.38;4.53;;;;;;;6.96;100.00;99720.84;4877026;29;20135;-76
2024/01/05 00:05:47;;;;;;;22.15;4.40;;;;;;;6.94;100.00;99720.13;4884937;29;20040;-76
2024/01/05 00:08:12;;;;;;;19.73;4.57;;;;;;;6.95;100.00;99716.47;4876699;29;20033;-76
2024/01/05 00:10:37;;;;;;;22.02;5.03;;;;;;;6.97;100.00;99706.53;4875868;29;20323;-76
2024/01/05 00:13:03;;;;;;;15.40;4.22;;;;;;;7.00;100.00;99714.31;4882254;29;20024;-76
2024/01/05 00:15:28;;;;;;;16.95;4.65;;;;;;;7.04;100.00;99716.75;4880665;29;20513;-76
2024/01/05 00:17:53;;;;;;;18.90;4.65;;;;;;;7.07;100.00;99711.16;4881262;29;20025;-76
2024/01/05 00:20:18;;;;;;;15.55;4.47;;;;;;;7.10;100.00;99710.91;4886298;29;20096;-76
2024/01/05 00:22:44;;;;;;;22.75;5.00;;;;;;;7.12;100.00;99715.19;4885161;29;20032;-76
2024/01/05 00:25:09;;;;;;;17.10;4.65;;;;;;;7.15;100.00;99706.94;4883798;29;20037;-76
2024/01/05 00:27:35;;;;;;;21.60;4.60;;;;;;;7.18;100.00;99708.53;4885996;29;20060;-76
2024/01/05 00:30:00;;;;;;;17.17;3.90;;;;;;;7.22;100.00;99707.31;4883435;29;20320;-73
2024/01/05 00:32:25;;;;;;;24.00;5.13;;;;;;;7.25;100.00;99701.72;4881067;29;20495;-73
2024/01/05 00:34:50;;;;;;;20.75;4.80;;;;;;;7.27;100.00;99697.09;4883068;29;20465;-73
2024/01/05 00:37:16;;;;;;;16.92;4.28;;;;;;;7.31;100.00;99693.22;4879923;29;20048;-74
2024/01/05 00:39:41;;;;;;;28.52;4.38;;;;;;;7.34;100.00;99684.97;4881618;29;20544;-73
2024/01/05 00:42:07;;;;;;;17.88;4.07;;;;;;;7.37;100.00;99686.56;4884743;29;20295;-74
2024/01/05 00:44:32;;;;;;;23.15;4.38;;;;;;;7.41;100.00;99684.47;4875909;29;20628;-74
2024/01/05 00:46:57;;;;;;;19.05;4.18;;;;;;;7.42;100.00;99675.50;4882067;29;20032;-74
2024/01/05 00:49:22;;;;;;;23.35;4.28;;;;;;;7.44;100.00;99676.25;4883190;29;20032;-74
2024/01/05 00:51:48;;;;;;;17.65;4.65;;;;;;;7.46;100.00;99677.78;4880878;29;20531;-73
2024/01/05 00:54:13;;;;;;;21.25;4.40;;;;;;;7.46;100.00;99683.16;4884282;29;20037;-74
2024/01/05 00:56:39;;;;;;;21.42;4.80;;;;;;;7.48;100.00;99672.31;4879448;29;20069;-74
2024/01/05 00:59:06;;;;;;;16.70;3.80;;;;;;;7.47;100.00;99671.50;4878877;29;20029;-74
2024/01/05 01:01:31;;;;;;;18.05;4.00;;;;;;;7.49;100.00;99669.53;4881791;29;20505;-74
2024/01/05 01:03:56;;;;;;;20.00;4.18;;;;;;;7.51;100.00;99664.94;4883825;29;20035;-73
2024/01/05 01:06:22;;;;;;;22.17;4.20;;;;;;;7.53;100.00;99665.66;4877973;29;20181;-73
2024/01/05 01:08:47;;;;;;;20.88;4.25;;;;;;;7.55;100.00;99654.00;4880470;29;20036;-73
2024/01/05 01:11:14;;;;;;;22.80;4.55;;;;;;;7.55;100.00;99657.50;4886059;29;20472;-74
2024/01/05 01:13:39;;;;;;;14.65;4.05;;;;;;;7.56;100.00;99655.69;4877616;29;20068;-73
2024/01/05 01:16:04;;;;;;;17.05;3.85;;;;;;;7.58;100.00;99646.56;4884416;29;20029;-74
2024/01/05 01:18:30;;;;;;;25.35;4.45;;;;;;;7.58;100.00;99649.22;4871711;29;20033;-74
2024/01/05 01:20:55;;;;;;;16.27;3.50;;;;;;;7.57;100.00;99644.00;4880325;29;20444;-74
2024/01/05 01:23:20;;;;;;;13.50;3.83;;;;;;;7.58;100.00;99648.38;4887636;29;20115;-74
2024/01/05 01:25:46;;;;;;;15.13;3.67;;;;;;;7.58;100.00;99638.53;4882712;29;20108;-74
2024/01/05 01:28:11;;;;;;;19.88;3.80;;;;;;;7.59;100.00;99634.91;4871977;29;20031;-74
2024/01/05 01:30:36;;;;;;;14.93;3.92;;;;;;;7.60;100.00;99630.38;4874059;29;20033;-74
2024/01/05 01:33:01;;;;;;;22.10;3.95;;;;;;;7.58;100.00;99627.84;4876458;29;20501;-74
2024/01/05 01:35:27;;;;;;;17.95;4.00;;;;;;;7.58;100.00;99621.66;4877554;29;20041;-74
2024/01/05 01:37:52;;;;;;;19.17;3.95;;;;;;;7.57;100.00;99623.50;4877171;29;20088;-74
2024/01/05 01:40:18;;;;;;;17.60;4.10;;;;;;;7.59;100.00;99615.34;4880334;29;20409;-74
2024/01/05 01:42:45;;;;;;;17.65;4.15;;;;;;;7.58;100.00;99611.78;4880926;29;20037;-74
2024/01/05 01:45:11;;;;;;;24.25;4.63;;;;;;;7.59;100.00;99618.00;4873939;29;20477;-74
2024/01/05 01:47:36;;;;;;;17.52;3.85;;;;;;;7.59;100.00;99613.50;4876473;29;20029;-74
2024/01/05 01:50:02;;;;;;;19.35;3.80;;;;;;;7.60;100.00;99609.88;4873717;29;20289;-74
2024/01/05 01:52:28;;;;;;;16.50;3.63;;;;;;;7.59;100.00;99600.13;4874851;29;20064;-74
2024/01/05 01:54:53;;;;;;;18.98;3.88;;;;;;;7.58;100.00;99601.09;4874434;29;20025;-74
2024/01/05 01:57:19;;;;;;;16.13;3.92;;;;;;;7.57;100.00;99598.56;4873685;29;20454;-74
2024/01/05 01:59:44;;;;;;;18.90;3.95;;;;;;;7.57;100.00;99593.22;4874288;29;20066;-74
2024/01/05 02:02:12;;;;;;;21.38;4.82;;;;;;;7.53;100.00;99592.63;4874446;29;20044;-74
2024/01/05 02:04:37;;;;;;;14.65;3.38;;;;;;;7.52;100.00;99581.06;4871186;29;20158;-74
2024/01/05 02:07:03;;;;;;;17.77;3.85;;;;;;;7.49;100.00;99577.78;4874673;29;20535;-74
2024/01/05 02:09:29;;;;;;;14.43;3.35;;;;;;;7.43;100.00;99565.78;4873216;29;20673;-74
2024/01/05 02:11:54;;;;;;;18.63;4.03;;;;;;;7.40;100.00;99566.03;4876703;29;20482;-74
2024/01/05 02:14:19;;;;;;;18.17;3.72;;;;;;;7.34;100.00;99556.66;4872592;29;20024;-74
2024/01/05 02:16:44;;;;;;;15.93;4.05;;;;;;;7.28;100.00;99549.16;4877808;29;20056;-74
2024/01/05 02:19:10;;;;;;;13.77;3.40;;;;;;;7.23;100.00;99545.97;4878215;29;20029;-74
2024/01/05 02:21:40;;;;;;;20.67;4.10;;;;;;;7.18;100.00;99542.84;4875607;29;20025;-73
2024/01/05 02:24:05;;;;;;;;;;;;;;;7.17;100.00;99544.69;4873836;29;20080;-73
2024/01/05 02:26:30;;;;;;;18.00;3.20;;;;;;;7.11;100.00;99538.97;4874624;29;19916;-74
2024/01/05 02:28:56;;;;;;;10.60;2.92;;;;;;;7.07;100.00;99543.72;4872143;29;20065;-74
2024/01/05 02:31:21;;;;;;;13.27;2.95;;;;;;;7.06;100.00;99535.78;4874009;29;20021;-73
2024/01/05 02:33:46;;;;;;;12.70;2.90;;;;;;;7.07;100.00;99532.16;4873922;29;20651;-74
2024/01/05 02:36:12;;;;;;;17.33;3.40;;;;;;;7.10;100.00;99530.13;4876667;29;20465;-74
2024/01/05 02:38:37;;;;;;;13.95;3.15;;;;;;;7.12;100.00;99520.13;4877174;29;20076;-74
2024/01/05 02:41:05;;;;;;;10.20;2.85;;;;;;;7.14;100.00;99523.53;4878593;29;20087;-74
2024/01/05 02:43:31;;;;;;;18.50;3.10;;;;;;;7.15;100.00;99522.56;4876912;29;20104;-74
2024/01/05 02:45:56;;;;;;;13.57;3.33;;;;;;;7.17;100.00;99515.28;4874578;29;20215;-74
2024/01/05 02:48:21;;;;;;;15.18;3.20;;;;;;;7.18;100.00;99510.78;4876768;29;20035;-74
2024/01/05 02:50:47;;;;;;;18.85;3.47;;;;;;;7.22;100.00;99511.38;4878392;29;20040;-74
2024/01/05 02:53:12;;;;;;;10.45;3.08;;;;;;;7.25;100.00;99508.47;4872615;29;20438;-74
2024/01/05 02:55:37;;;;;;;17.17;3.35;;;;;;;7.27;100.00;99501.19;4873900;29;20517;-74
2024/01/05 02:58:03;;;;;;;15.60;3.38;;;;;;;7.30;100.00;99504.44;4872322;29;20025;-74
2024/01/05 03:00:29;;;;;;;11.60;2.78;;;;;;;7.32;100.00;99493.63;4875659;29;20422;-74
2024/01/05 03:02:54;;;;;;;11.02;2.88;;;;;;;7.33;100.00;99498.00;4876114;29;20064;-74
2024/01/05 03:05:20;;;;;;;14.18;3.35;;;;;;;7.34;100.00;99492.53;4875450;29;20448;-74
2024/01/05 03:07:46;;;;;;;13.60;2.80;;;;;;;7.35;100.00;99491.56;4879185;29;20036;-74
2024/01/05 03:10:11;;;;;;;14.70;3.08;;;;;;;7.38;100.00;99492.28;4881838;29;20480;-74
2024/01/05 03:12:36;;;;;;;11.95;2.42;;;;;;;7.38;100.00;99489.59;4881146;29;20025;-74
2024/01/05 03:15:02;;;;;;;12.57;2.95;;;;;;;7.39;100.00;99485.97;4876698;29;20029;-74
2024/01/05 03:17:28;;;;;;;13.38;2.83;;;;;;;7.39;100.00;99478.78;4873521;29;20064;-75
2024/01/05 03:19:53;;;;;;;8.07;2.50;;;;;;;7.42;100.00;99475.00;4878781;29;20040;-75
2024/01/05 03:22:18;;;;;;;14.65;3.45;;;;;;;7.41;100.00;99475.97;4874814;29;20377;-75
2024/01/05 03:24:44;;;;;;;14.65;3.13;;;;;;;7.42;100.00;99472.34;4875774;29;20490;-75
2024/01/05 03:27:13;;;;;;;18.85;3.33;;;;;;;7.44;100.00;99459.72;4875117;29;20119;-75
2024/01/05 03:29:39;;;;;;;10.03;2.47;;;;;;;7.45;100.00;99462.25;4875946;29;20485;-74
2024/01/05 03:32:04;;;;;;;10.80;2.63;;;;;;;7.46;100.00;99458.59;4873738;29;20044;-75
2024/01/05 03:34:30;;;;;;;12.27;3.22;;;;;;;7.46;100.00;99452.41;4873107;29;20037;-75
2024/01/05 03:36:56;;;;;;;15.85;2.80;;;;;;;7.46;100.00;99449.72;4876123;29;20045;-74
2024/01/05 03:39:21;;;;;;;12.43;2.85;;;;;;;7.47;100.00;99444.25;4875751;29;20060;-74
2024/01/05 03:41:46;;;;;;;15.45;2.95;;;;;;;7.48;100.00;99439.75;4876228;29;20032;-74
2024/01/05 03:44:13;;;;;;;10.68;2.30;;;;;;;7.50;100.00;99443.16;4878758;29;20381;-75
2024/01/05 03:46:38;;;;;;;12.80;2.90;;;;;;;7.50;100.00;99443.16;4877452;29;20053;-75
2024/01/05 03:49:03;;;;;;;11.15;2.50;;;;;;;7.51;100.00;99439.50;4877670;29;20458;-75
2024/01/05 03:51:28;;;;;;;10.05;2.97;;;;;;;7.49;100.00;99428.94;4878401;29;20036;-74
2024/01/05 03:53:54;;;;;;;17.17;3.90;;;;;;;7.49;100.00;99426.25;4872965;29;20030;-75
2024/01/05 03:56:19;;;;;;;10.02;2.17;;;;;;;7.45;100.00;99426.63;4875448;29;20729;-75
2024/01/05 03:58:44;;;;;;;10.65;2.60;;;;;;;7.42;100.00;99417.03;4874057;29;20032;-75
2024/01/05 04:01:09;;;;;;;12.07;3.08;;;;;;;7.40;100.00;99421.69;4873616;29;20029;-76
2024/01/05 04:03:35;;;;;;;9.32;2.55;;;;;;;7.41;100.00;99411.81;4875059;29;20033;-74
2024/01/05 04:06:00;;;;;;;10.68;2.35;;;;;;;7.41;100.00;99407.34;4877395;29;20690;-75
2024/01/05 04:08:25;;;;;;;12.70;2.60;;;;;;;7.42;100.00;99398.34;4877439;29;20116;-74
2024/01/05 04:10:51;;;;;;;8.75;2.22;;;;;;;7.43;100.00;99401.88;4877355;29;20401;-74
2024/01/05 04:13:16;;;;;;;13.32;2.70;;;;;;;7.42;100.00;99393.00;4878253;29;20588;-74
2024/01/05 04:15:41;;;;;;;11.88;2.63;;;;;;;7.42;100.00;99386.81;4879992;29;20029;-74
2024/01/05 04:18:09;;;;;;;13.73;2.88;;;;;;;7.41;100.00;99374.41;4875927;29;20240;-75
2024/01/05 04:20:34;;;;;;;5.95;2.30;;;;;;;7.42;100.00;99384.97;4878324;29;20033;-74
2024/01/05 04:23:00;;;;;;;6.78;2.30;;;;;;;7.42;100.00;99379.63;4877976;29;20291;-74
2024/01/05 04:25:25;;;;;;;8.55;2.15;;;;;;;7.42;100.00;99376.94;4879949;29;20108;-74
2024/01/05 04:27:51;;;;;;;9.20;2.63;;;;;;;7.42;100.00;99366.25;4875283;29;20033;-74
2024/01/05 04:30:17;;;;;;;14.45;3.08;;;;;;;7.44;100.00;99366.16;4875274;29;20516;-74
2024/01/05 04:32:43;;;;;;;15.82;2.50;;;;;;;7.44;100.00;99356.31;4879002;29;20033;-75
2024/01/05 04:35:09;;;;;;;8.63;2.80;;;;;;;7.45;100.00;99354.47;4879792;29;20053;-74
2024/01/05 04:37:34;;;;;;;10.57;2.40;;;;;;;7.45;100.00;99358.00;4876763;29;20041;-74
2024/01/05 04:39:59;;;;;;;11.30;2.75;;;;;;;7.45;100.00;99351.78;4879825;29;20029;-73
2024/01/05 04:42:26;;;;;;;11.20;2.55;;;;;;;7.45;100.00;99350.00;4876237;29;20029;-74
2024/01/05 04:44:52;;;;;;;10.63;2.50;;;;;;;7.47;100.00;99345.34;4878332;29;20039;-74
2024/01/05 04:47:18;;;;;;;10.23;2.83;;;;;;;7.44;100.00;99342.94;4879936;29;20029;-74
2024/01/05 04:49:43;;;;;;;11.27;2.45;;;;;;;7.42;100.00;99341.38;4878716;29;20060;-74
2024/01/05 04:52:09;;;;;;;11.18;2.03;;;;;;;7.39;100.00;99334.44;4874794;29;20049;-74
2024/01/05 04:54:35;;;;;;;14.20;3.22;;;;;;;7.39;100.00;99333.59;4876427;29;20029;-74
2024/01/05 04:57:01;;;;;;;7.53;2.17;;;;;;;7.38;100.00;99332.78;4880244;29;20374;-74
2024/01/05 04:59:27;;;;;;;10.75;2.45;;;;;;;7.37;100.00;99323.03;4874775;29;20025;-75
2024/01/05 05:01:52;;;;;;;9.50;2.40;;;;;;;7.37;100.00;99327.56;4876611;29;20037;-73
2024/01/05 05:04:17;;;;;;;10.80;2.60;;;;;;;7.38;100.00;99319.41;4874845;29;20501;-74
2024/01/05 05:06:44;;;;;;;9.35;2.35;;;;;;;7.39;100.00;99315.72;4876179;29;20029;-74
2024/01/05 05:09:09;;;;;;;12.35;2.28;;;;;;;7.38;100.00;99306.03;4877314;29;20115;-74
2024/01/05 05:11:35;;;;;;;12.27;2.70;;;;;;;7.37;100.00;99320.38;4877444;29;20567;-74
2024/01/05 05:14:00;;;;;;;10.18;2.25;;;;;;;7.31;100.00;99316.38;4875948;29;20048;-74
2024/01/05 05:16:25;;;;;;;11.55;2.40;;;;;;;7.25;100.00;99308.06;4880132;29;20250;-74
2024/01/05 05:18:51;;;;;;;9.07;2.67;;;;;;;7.19;100.00;99309.41;4876059;29;20033;-74
2024/01/05 05:21:16;;;;;;;8.23;1.98;;;;;;;7.16;100.00;99315.88;4878126;29;20084;-74
2024/01/05 05:23:42;;;;;;;11.93;2.38;;;;;;;7.14;100.00;99307.09;4878925;29;20025;-74
2024/01/05 05:26:07;;;;;;;15.25;2.10;;;;;;;7.15;100.00;99310.66;4878429;29;20025;-73
2024/01/05 05:28:32;;;;;;;16.13;2.60;;;;;;;7.16;100.00;99302.50;4877882;29;20100;-74
2024/01/05 05:30:58;;;;;;;10.13;2.35;;;;;;;7.18;100.00;99315.72;4875594;29;20350;-75
2024/01/05 05:33:23;;;;;;;9.20;1.85;;;;;;;7.19;100.00;99304.06;4876681;29;20108;-75
2024/01/05 05:35:49;;;;;;;14.77;2.72;;;;;;;7.17;100.00;99306.00;4875765;29;20048;-75
2024/01/05 05:38:14;;;;;;;9.35;2.28;;;;;;;7.15;100.00;99305.31;4875740;29;20123;-75
2024/01/05 05:40:39;;;;;;;9.48;2.63;;;;;;;7.13;100.00;99302.75;4883850;29;20124;-74
2024/01/05 05:43:05;;;;;;;10.38;2.88;;;;;;;7.13;100.00;99305.44;4885753;29;20036;-74
2024/01/05 05:45:30;;;;;;;9.93;2.60;;;;;;;7.17;100.00;99300.66;4892737;29;20047;-74
2024/01/05 05:47:55;;;;;;;10.88;2.33;;;;;;;7.18;100.00;99305.88;4888877;29;20065;-74
2024/01/05 05:50:21;;;;;;;3.92;1.42;;;;;;;7.18;100.00;99305.03;4906440;29;20057;-74
2024/01/05 05:52:47;;;;;;;9.55;1.80;;;;;;;7.24;100.00;99314.38;4898283;29;20217;-74
2024/01/05 05:55:12;;;;;;;7.38;2.10;;;;;;;7.31;100.00;99305.69;4902998;29;20024;-74
2024/01/05 05:57:41;;;;;;;8.15;1.92;;;;;;;7.35;100.00;99314.31;4897992;29;20084;-74
2024/01/05 06:00:07;;;;;;;6.35;1.55;;;;;;;7.33;100.00;99311.75;4895781;29;20032;-74
2024/01/05 06:02:32;;;;;;;2.25;0.82;;;;;;;7.35;100.00;99311.66;4897145;29;20120;-74
2024/01/05 06:04:57;;;;;;;2.08;1.00;;;;;;;7.33;99.97;99325.13;4898368;29;20036;-73
2024/01/05 06:07:24;;;;;;;2.50;0.60;;;;;;;7.32;97.34;99326.13;4892240;29;20029;-75
2024/01/05 06:09:49;;;;;;;4.63;0.95;;;;;;;7.29;96.31;99331.72;4891334;29;20085;-75
2024/01/05 06:12:15;;;;;;;3.25;0.77;;;;;;;7.26;96.37;99329.31;4887999;29;20036;-74
2024/01/05 06:14:40;;;;;;;2.20;0.93;;;;;;;7.24;95.72;99328.56;4891424;29;20039;-74
2024/01/05 06:17:05;;;;;;;3.60;0.70;;;;;;;7.25;95.86;99322.25;4892993;29;20037;-74
2024/01/05 06:19:31;;;;;;;2.88;0.85;;;;;;;7.27;96.67;99324.81;4894879;29;20029;-74
2024/01/05 06:21:57;;;;;;;1.27;0.63;;;;;;;7.25;93.79;99322.25;4892222;29;20132;-75
2024/01/05 06:24:22;;;;;;;1.10;0.47;;;;;;;7.26;94.12;99323.97;4893570;29;20027;-75
2024/01/05 06:26:48;;;;;;;0.95;0.50;;;;;;;7.26;95.53;99323.97;4894030;29;20032;-73
2024/01/05 06:29:13;;;;;;;1.55;0.50;;;;;;;7.26;95.70;99329.31;4893142;29;20119;-74
2024/01/05 06:31:38;;;;;;;2.33;0.60;;;;;;;7.27;93.85;99324.81;4890073;29;20528;-74
2024/01/05 06:34:04;;;;;;;3.33;0.98;;;;;;;7.27;95.54;99324.81;4891418;29;20077;-74
2024/01/05 06:36:29;;;;;;;3.30;0.70;;;;;;;7.25;95.79;99327.59;4891416;29;20120;-74
2024/01/05 06:38:54;;;;;;;4.10;1.08;;;;;;;7.24;94.27;99325.91;4896844;29;20044;-74
2024/01/05 06:41:19;;;;;;;0.90;0.50;;;;;;;7.24;95.93;99322.38;4888084;29;20037;-73
2024/01/05 06:43:45;;;;;;;3.80;0.85;;;;;;;7.24;95.36;99325.91;4892949;29;20101;-74
2024/01/05 06:46:10;;;;;;;2.03;0.52;;;;;;;7.24;97.25;99331.25;4887329;29;20039;-74
2024/01/05 06:48:36;;;;;;;1.15;0.47;;;;;;;7.25;96.33;99326.78;4886795;29;20116;-74
2024/01/05 06:51:01;;;;;;;3.50;1.20;;;;;;;7.24;95.93;99333.06;4876161;29;20033;-75
2024/01/05 06:53:28;;;;;;;2.17;0.70;;;;;;;7.24;96.57;99335.75;4875584;29;20047;-75
2024/01/05 06:55:54;;;;;;;1.30;0.60;;;;;;;7.23;97.43;99331.38;4874967;29;20029;-74
2024/01/05 06:58:19;;;;;;;0.95;0.40;;;;;;;7.24;95.29;99325.06;4873624;29;20039;-74
2024/01/05 07:00:44;;;;;;;1.50;0.55;;;;;;;7.23;96.91;99321.53;4884101;29;20073;-73
2024/01/05 07:03:09;;;;;;;3.78;0.65;;;;;;;7.20;97.13;99329.81;4887546;29;20033;-73
2024/01/05 07:05:35;;;;;;;1.45;0.95;;;;;;;7.20;95.96;99321.78;4888155;29;20048;-73
2024/01/05 07:08:00;;;;;;;3.92;1.00;;;;;;;7.18;97.16;99321.91;4890811;29;20048;-74
2024/01/05 07:10:25;;;;;;;3.72;1.00;;;;;;;7.18;97.15;99321.91;4892570;29;20029;-73
2024/01/05 07:12:52;;;;;;;1.80;0.80;;;;;;;7.20;95.78;99319.13;4890524;29;20031;-74
2024/01/05 07:15:17;;;;;;;1.90;0.63;;;;;;;7.19;95.02;99314.75;4887910;29;20025;-74
2024/01/05 07:17:43;;;;;;;0.57;0.57;;;;;;;7.18;95.63;99321.91;4891160;29;20024;-74
2024/01/05 07:20:11;;;;;;;1.25;0.60;;;;;;;7.19;95.78;99325.44;4893589;29;20104;-74
2024/01/05 07:22:40;;;;;;;3.33;0.93;;;;;;;7.17;96.83;99330.06;4890222;29;20040;-74
2024/01/05 07:25:09;;;;;;;0.60;0.60;;;;;;;7.15;96.61;99327.53;4891572;29;20067;-75
2024/01/05 07:27:34;;;;;;;1.17;0.70;;;;;;;7.14;97.43;99328.47;4884700;29;20405;-75
2024/01/05 07:30:00;;;;;;;1.63;0.95;;;;;;;7.12;97.50;99324.28;4883648;29;20031;-74
2024/01/05 07:32:25;;;;;;;0.60;0.50;;;;;;;7.11;97.77;99326.06;4883535;29;20031;-73
2024/01/05 07:34:50;;;;;;;1.45;0.50;;;;;;;7.10;99.58;99335.09;4880942;29;20041;-74
2024/01/05 07:37:17;;;;;;;1.95;0.40;;;;;;;7.08;100.00;99338.84;4883155;29;20044;-74
2024/01/05 07:39:42;;;;;;;1.55;0.70;;;;;;;7.01;100.00;99341.16;4887418;29;20028;-74
2024/01/05 07:42:07;;;;;;;2.88;1.15;;;;;;;6.97;100.00;99337.09;4895635;29;20024;-74
2024/01/05 07:44:33;;;;;;;3.20;0.85;;;;;;;6.90;100.00;99344.75;4883678;29;20033;-74
2024/01/05 07:46:58;;;;;;;2.17;0.80;;;;;;;6.87;100.00;99347.66;4883485;29;20142;-74
2024/01/05 07:49:26;;;;;;;1.50;0.50;;;;;;;6.78;100.00;99346.59;4887197;29;20055;-74
2024/01/05 07:51:52;;;;;;;1.55;0.75;;;;;;;6.73;100.00;99339.94;4886049;29;20493;-73
2024/01/05 07:54:18;;;;;;;1.52;0.68;;;;;;;6.68;100.00;99352.78;4879665;29;20021;-74
2024/01/05 07:56:43;;;;;;;2.90;0.90;;;;;;;6.62;100.00;99351.50;4883534;29;20044;-74
2024/01/05 07:59:08;;;;;;;4.75;0.82;;;;;;;6.57;100.00;99351.00;4886603;29;20029;-74
2024/01/05 08:01:33;;;;;;;3.72;0.93;;;;;;;6.50;100.00;99348.00;4885900;29;20033;-74
2024/01/05 08:03:59;;;;;;;4.63;0.95;;;;;;;6.47;100.00;99348.22;4892384;29;20033;-74
2024/01/05 08:06:24;;;;;;;1.67;0.75;;;;;;;6.43;100.00;99336.13;4892169;29;20077;-74
2024/01/05 08:08:50;;;;;;;1.23;0.75;;;;;;;6.40;100.00;99347.00;4894549;29;20057;-73
2024/01/05 08:11:16;;;;;;;3.70;0.60;;;;;;;6.40;100.00;99345.22;4883627;29;20033;-74
2024/01/05 08:13:43;;;;;;;2.85;1.00;;;;;;;6.39;100.00;99345.34;4876972;29;20025;-73
2024/01/05 08:16:09;;;;;;;1.35;0.60;;;;;;;6.38;100.00;99348.97;4873405;29;20040;-73
2024/01/05 08:18:39;;;;;;;2.30;0.63;;;;;;;6.36;100.00;99353.59;4876449;29;20064;-73
2024/01/05 08:21:04;;;;;;;;;;;;;;;6.41;100.00;99344.25;4874304;29;20028;-73
2024/01/05 08:23:31;;;;;;;2.72;0.95;;;;;;;6.37;100.00;99349.94;4876207;29;19945;-74
2024/01/05 08:25:57;;;;;;;1.65;0.95;;;;;;;6.35;100.00;99354.53;4876816;29;20532;-73
2024/01/05 08:28:22;;;;;;;2.00;0.88;;;;;;;6.36;100.00;99356.25;4875711;29;20026;-73
2024/01/05 08:30:47;;;;;;;2.95;0.68;;;;;;;6.35;100.00;99354.53;4876290;29;20076;-76
2024/01/05 08:33:13;;;;;;;2.03;1.05;;;;;;;6.33;100.00;99361.84;4876399;29;20025;-73
2024/01/05 08:35:39;;;;;;;3.47;1.20;;;;;;;6.27;100.00;99345.34;4875242;29;20485;-74
2024/01/05 08:38:04;;;;;;;4.00;1.20;;;;;;;6.22;100.00;99358.22;4872117;29;20049;-73
2024/01/05 08:40:30;;;;;;;1.55;0.85;;;;;;;6.21;100.00;99363.63;4870094;29;20040;-73
2024/01/05 08:42:56;;;;;;;2.67;0.95;;;;;;;6.17;100.00;99355.03;4877153;29;20124;-73
2024/01/05 08:45:21;;;;;;;1.67;1.10;;;;;;;6.12;100.00;99358.06;4874867;29;20059;-73
2024/01/05 08:47:47;;;;;;;4.53;0.98;;;;;;;6.08;100.00;99369.09;4876203;29;20350;-74
2024/01/05 08:50:12;;;;;;;4.30;0.90;;;;;;;6.02;100.00;99381.09;4871149;29;20044;-73
2024/01/05 08:52:37;;;;;;;0.90;0.90;;;;;;;5.98;100.00;99379.63;4878317;29;20514;-73
2024/01/05 08:55:04;;;;;;;2.30;0.85;;;;;;;5.93;100.00;99387.97;4878484;29;20028;-73
2024/01/05 08:57:29;;;;;;;1.85;1.00;;;;;;;5.88;100.00;99382.13;4876854;29;20609;-74
2024/01/05 08:59:55;;;;;;;1.00;0.90;;;;;;;5.82;100.00;99379.09;4873877;29;20029;-74
2024/01/05 09:02:20;;;;;;;1.83;0.80;;;;;;;5.73;100.00;99396.66;4875334;29;20032;-74
2024/01/05 09:04:46;;;;;;;3.38;0.60;;;;;;;5.67;100.00;99392.63;4872648;29;20047;-73
2024/01/05 09:07:12;;;;;;;0.43;0.40;;;;;;;5.59;100.00;99387.03;4877622;29;20060;-73
2024/01/05 09:09:38;;;;;;;1.30;0.30;;;;;;;5.54;100.00;99384.72;4875073;29;20056;-74
2024/01/05 09:12:03;;;;;;;3.75;1.00;;;;;;;5.46;100.00;99387.13;4875613;29;20072;-73
2024/01/05 09:14:29;;;;;;;0.82;0.65;;;;;;;5.43;100.00;99393.53;4875529;29;20032;-73
2024/01/05 09:16:54;;;;;;;1.40;0.77;;;;;;;5.40;100.00;99395.56;4875573;29;20479;-73
2024/01/05 09:19:20;;;;;;;2.22;1.10;;;;;;;5.39;100.00;99388.56;4876747;29;20033;-73
2024/01/05 09:21:45;;;;;;;3.45;1.25;;;;;;;5.37;100.00;99394.00;4878471;29;20044;-73
2024/01/05 09:24:11;;;;;;;2.40;0.90;;;;;;;5.37;100.00;99387.81;4878709;29;20085;-72
2024/01/05 09:26:36;;;;;;;1.63;1.00;;;;;;;5.38;100.00;99400.16;4885094;29;20560;-72
2024/01/05 09:29:01;;;;;;;1.65;0.88;;;;;;;5.39;100.00;99393.88;4880289;29;20462;-72
2024/01/05 09:31:27;;;;;;;4.50;1.00;;;;;;;5.39;100.00;99393.88;4877635;29;20056;-71
2024/01/05 09:33:54;;;;;;;2.75;0.98;;;;;;;5.38;100.00;99403.69;4883418;29;20021;-72
2024/01/05 09:36:19;;;;;;;2.03;1.30;;;;;;;5.38;100.00;99402.84;4887504;29;20100;-74
2024/01/05 09:38:45;;;;;;;5.30;1.40;;;;;;;5.39;100.00;99393.88;4882518;29;20037;-73
2024/01/05 09:41:13;;;;;;;6.20;1.50;;;;;;;5.43;100.00;99411.31;4880449;29;20519;-72
2024/01/05 09:43:40;;;;;;;3.75;1.27;;;;;;;5.43;100.00;99409.53;4881141;29;20029;-73
2024/01/05 09:46:07;;;;;;;4.10;1.38;;;;;;;5.44;100.00;99415.69;4882795;29;20043;-72
2024/01/05 09:48:32;;;;;;;2.28;1.10;;;;;;;5.46;100.00;99420.91;4880929;29;20032;-72
2024/01/05 09:50:59;;;;;;;5.13;1.58;;;;;;;5.50;100.00;99409.91;4884779;29;20124;-71
2024/01/05 09:53:24;;;;;;;7.75;1.83;;;;;;;5.53;100.00;99409.66;4879165;29;20033;-73
2024/01/05 09:55:50;;;;;;;5.55;1.75;;;;;;;5.59;100.00;99422.53;4880526;29;20021;-74
2024/01/05 09:58:16;;;;;;;2.78;1.48;;;;;;;5.64;100.00;99418.66;4880480;29;20549;-73
2024/01/05 10:00:47;;;;;;;4.93;1.73;;;;;;;5.68;100.00;99421.00;4883644;29;20378;-72
2024/01/05 10:03:21;;;;;;;3.47;1.65;;;;;;;5.72;100.00;99421.59;4883465;29;20025;-72
2024/01/05 10:05:49;;;;;;;2.83;1.42;;;;;;;5.74;100.00;99425.84;4878730;29;20033;-72
2024/01/05 10:08:14;;;;;;;11.73;2.10;;;;;;;5.77;100.00;99416.78;4882007;29;20029;-72
2024/01/05 10:10:48;;;;;;;7.20;2.20;;;;;;;5.77;100.00;99416.78;4879831;29;20037;-71
2024/01/05 10:13:15;;;;;;;5.72;1.98;;;;;;;5.84;100.00;99409.16;4879376;29;20053;-71
2024/01/05 10:15:51;;;;;;;5.05;2.10;;;;;;;5.98;100.00;99421.47;4877739;29;20085;-74
2024/01/05 10:18:17;;;;;;;5.97;2.00;;;;;;;6.05;100.00;99414.69;4880285;29;20488;-72
2024/01/05 10:20:42;;;;;;;4.63;2.15;;;;;;;6.11;100.00;99400.88;4879241;29;20069;-73
2024/01/05 10:23:08;;;;;;;4.90;2.40;;;;;;;6.21;100.00;99407.19;4883579;29;20085;-72
2024/01/05 10:25:35;;;;;;;6.55;1.92;;;;;;;6.28;100.00;99410.19;4881300;29;20033;-72
2024/01/05 10:28:01;;;;;;;5.40;2.00;;;;;;;6.31;100.00;99404.66;4880427;29;20131;-73
2024/01/05 10:30:29;;;;;;;4.57;2.10;;;;;;;6.33;100.00;99407.19;4878880;29;20521;-73
2024/01/05 10:33:07;;;;;;;6.65;1.80;;;;;;;6.36;100.00;99398.94;4877539;29;20056;-74
2024/01/05 10:35:34;;;;;;;7.68;2.45;;;;;;;6.34;100.00;99403.53;4873836;29;20028;-75
2024/01/05 10:38:08;;;;;;;6.72;1.67;;;;;;;6.38;100.00;99405.00;4873788;29;20569;-74
2024/01/05 10:40:34;;;;;;;7.28;2.45;;;;;;;6.38;100.00;99410.34;4874541;29;20480;-74
2024/01/05 10:43:09;;;;;;;5.20;2.22;;;;;;;6.42;100.00;99414.47;4873398;29;20128;-74
2024/01/05 10:45:36;;;;;;;6.18;1.98;;;;;;;6.39;100.00;99409.38;4875373;29;20036;-74
2024/01/05 10:48:04;;;;;;;5.05;2.10;;;;;;;6.38;100.00;99415.69;4871410;29;20073;-74
2024/01/05 10:50:30;;;;;;;2.35;1.50;;;;;;;6.38;100.00;99411.19;4873675;29;20412;-73
2024/01/05 10:52:57;;;;;;;5.88;1.90;;;;;;;6.38;100.00;99421.84;4876772;29;20033;-74
2024/01/05 10:55:22;;;;;;;4.22;1.83;;;;;;;6.39;100.00;99425.38;4874265;29;20025;-74
2024/01/05 10:57:47;;;;;;;4.82;1.73;;;;;;;6.41;100.00;99396.75;4871459;29;20035;-74
2024/01/05 11:00:13;;;;;;;4.18;1.60;;;;;;;6.41;100.00;99418.97;4875211;29;20160;-74
2024/01/05 11:02:46;;;;;;;5.60;1.48;;;;;;;6.40;100.00;99409.25;4877720;29;20032;-76
2024/01/05 11:05:13;;;;;;;5.35;1.65;;;;;;;6.36;100.00;99415.78;4877482;29;20032;-74
2024/01/05 11:07:40;;;;;;;4.32;1.48;;;;;;;6.38;100.00;99419.19;4874862;29;20053;-74
2024/01/05 11:10:35;;;;;;;3.65;1.50;;;;;;;6.40;100.00;99414.59;4874634;29;20081;-74
2024/01/05 11:13:22;;;;;;;4.38;1.52;;;;;;;6.38;100.00;99408.50;4875793;29;20029;-74
2024/01/05 11:16:16;;;;;;;2.50;1.33;;;;;;;6.38;100.00;99418.34;4881563;29;20056;-74
2024/01/05 11:19:05;;;;;;;5.07;1.75;;;;;;;6.38;100.00;99434.34;4884395;29;20037;-74
2024/01/05 11:21:46;;;;;;;3.50;1.55;;;;;;;6.37;100.00;99417.50;4885436;29;20033;-74
2024/01/05 11:24:14;;;;;;;6.28;1.90;;;;;;;6.40;100.00;99427.94;4884368;29;20025;-74
2024/01/05 11:26:42;;;;;;;5.85;2.30;;;;;;;6.37;100.00;99432.66;4888991;29;20049;-74